Dreyer, Texas
Current Conditions -  °F | °C
As of 10:35 PM on Saturday 25 Oct 2014 (Local Time) from KT20 Reporting Station
Clear Clear  
Wind Chill: 70°   Ceiling: Unl
Heat Index: 70°   Visibility: 10mi
Dew Point: 60°   Wind: 6mph
Humidity: 69%   Direction: 170°S
Pressure: 30.1"   Gusts: NA
Location:  29.4258°N, 97.1461°W
Report Text: KT20 260335Z AUTO 17005KT 10SM CLR 21/16 A3010 RMK AO2 T02130155
Loading
Personal Weather Stations






























Interactive Weather Map
Tropical Storm Tracking
New forecast layout! Learn more

10-Day Weather Forecast

Advertisements
Track Severe Weather on mobile